This is the latest recevied weather packets stored in our database for station/object DL3MEB-6. If no packets are shown the sender has not sent any weather packets the latest 10 day(s).
| Time | Temp. | Humidity | Pressure | Rain* | Wind** | Luminosity | Snow |
|---|---|---|---|---|---|---|---|
| 1777754702 | 15.56° C | 43% | 1016.2 hPa | 0 mm | - | - | - |
| 1777753795 | 16.11° C | 43% | 1016.3 hPa | 0 mm | - | - | - |
| 1777752896 | 16.67° C | 39% | 1016.5 hPa | 0 mm | - | - | - |
| 1777751989 | 17.22° C | 40% | 1016.4 hPa | 0 mm | - | - | - |
| 1777751080 | 18.33° C | 39% | 1016.3 hPa | 0 mm | - | - | - |
| 1777750172 | 18.89° C | 37% | 1016.2 hPa | 0 mm | - | - | - |
| 1777749273 | 20° C | 35% | 1016.5 hPa | 0 mm | - | - | - |
| 1777748369 | 21.11° C | 33% | 1016.3 hPa | 0 mm | - | - | - |
| 1777747463 | 22.22° C | 29% | 1016.2 hPa | 0 mm | - | - | - |
| 1777746557 | 23.33° C | 28% | 1016.2 hPa | 0 mm | - | - | - |
| 1777745655 | 23.89° C | 27% | 1016.4 hPa | 0 mm | - | - | - |
| 1777744755 | 25° C | 27% | 1016.3 hPa | 0 mm | - | - | - |
| 1777743845 | 25.56° C | 25% | 1016.3 hPa | 0 mm | - | - | - |
| 1777742937 | 26.11° C | 25% | 1016.2 hPa | 0 mm | - | - | - |
| 1777742029 | 27.22° C | 22% | 1016.4 hPa | 0 mm | - | - | - |
| 1777741119 | 27.78° C | 20% | 1016.4 hPa | 0 mm | - | - | - |
| 1777740211 | 27.78° C | 21% | 1016.4 hPa | 0 mm | - | - | - |
| 1777739310 | 28.33° C | 20% | 1016.5 hPa | 0 mm | - | - | - |
| 1777738399 | 28.89° C | 19% | 1016.8 hPa | 0 mm | - | - | - |
| 1777737494 | 28.33° C | 20% | 1016.9 hPa | 0 mm | - | - | - |
| 1777735691 | 27.78° C | 20% | 1017.3 hPa | 0 mm | - | - | - |
| 1777734778 | 27.78° C | 23% | 1017.4 hPa | 0 mm | - | - | - |
| 1777733873 | 27.78° C | 19% | 1017.5 hPa | 0 mm | - | - | - |
| 1777732970 | 27.78° C | 20% | 1017.7 hPa | 0 mm | - | - | - |
| 1777732066 | 27.78° C | 22% | 1017.8 hPa | 0 mm | - | - | - |
* Rain latest hour (hover to see other rain measurements)
** Current wind speed in m/s (hover to see current wind gust speed)